Terminal Aerodrome Forecast
Issued by NWS

Home | Current Version | Previous Version | Text Only | Print | Product List | Glossary On
Versions: 1 2 3 4 5 6 7 8 9 10 11 12 13 14 15 16 17 18 19 20 21 22 23 24 25 26 27 28 29 30 31 32 33 34
000
FTAK31 PAFA 211136
TAFAFA
TAF
PAFA 211136Z 2112/2218 20003KT 6SM -RA BR FEW005 SCT015 OVC035
     FM211800 24004KT P6SM VCSH SCT025 BKN035 OVC050
     FM220000 27004KT P6SM VCSH SCT035 BKN050 BKN100=

USA.gov is the U.S. government's official web portal to all federal, state and local government web resources and services.